sensor_id;sensor_type;location;lat;lon;timestamp;P1;durP1;ratioP1;P2;durP2;ratioP2
67041;SDS011;53949;47.790;18.750;2024-03-23T00:52:16;12.45;;;6.05;;
67041;SDS011;53949;47.790;18.750;2024-03-23T00:55:18;9.80;;;5.60;;
67041;SDS011;53949;47.790;18.750;2024-03-23T00:58:20;14.50;;;6.65;;
67041;SDS011;53949;47.790;18.750;2024-03-23T01:01:23;11.77;;;6.20;;
67041;SDS011;53949;47.790;18.750;2024-03-23T01:04:25;12.98;;;6.80;;
67041;SDS011;53949;47.790;18.750;2024-03-23T01:07:28;11.73;;;6.47;;
67041;SDS011;53949;47.790;18.750;2024-03-23T01:10:30;14.38;;;5.80;;
67041;SDS011;53949;47.790;18.750;2024-03-23T01:13:32;10.30;;;5.45;;
67041;SDS011;53949;47.790;18.750;2024-03-23T01:16:35;10.10;;;5.80;;
67041;SDS011;53949;47.790;18.750;2024-03-23T01:19:37;10.75;;;5.80;;
67041;SDS011;53949;47.790;18.750;2024-03-23T01:22:41;10.70;;;6.30;;
67041;SDS011;53949;47.790;18.750;2024-03-23T01:25:43;10.68;;;5.57;;
67041;SDS011;53949;47.790;18.750;2024-03-23T01:28:45;7.82;;;5.03;;
67041;SDS011;53949;47.790;18.750;2024-03-23T01:31:47;9.75;;;5.70;;
67041;SDS011;53949;47.790;18.750;2024-03-23T01:34:50;12.98;;;5.37;;
67041;SDS011;53949;47.790;18.750;2024-03-23T01:37:53;9.52;;;5.45;;
67041;SDS011;53949;47.790;18.750;2024-03-23T01:40:58;12.30;;;5.55;;
67041;SDS011;53949;47.790;18.750;2024-03-23T01:44:01;7.35;;;5.18;;
67041;SDS011;53949;47.790;18.750;2024-03-23T01:47:10;9.98;;;5.65;;
67041;SDS011;53949;47.790;18.750;2024-03-23T01:50:13;10.43;;;5.93;;
67041;SDS011;53949;47.790;18.750;2024-03-23T01:53:15;10.93;;;5.97;;
67041;SDS011;53949;47.790;18.750;2024-03-23T01:56:19;10.55;;;5.68;;
67041;SDS011;53949;47.790;18.750;2024-03-23T01:59:21;10.32;;;5.72;;
67041;SDS011;53949;47.790;18.750;2024-03-23T02:02:23;10.95;;;6.43;;
67041;SDS011;53949;47.790;18.750;2024-03-23T02:05:26;13.00;;;6.07;;
67041;SDS011;53949;47.790;18.750;2024-03-23T02:08:28;11.12;;;6.20;;
67041;SDS011;53949;47.790;18.750;2024-03-23T02:11:30;9.13;;;5.62;;
67041;SDS011;53949;47.790;18.750;2024-03-23T02:14:32;10.88;;;5.57;;
67041;SDS011;53949;47.790;18.750;2024-03-23T02:17:36;10.90;;;5.80;;
67041;SDS011;53949;47.790;18.750;2024-03-23T02:20:38;8.85;;;5.28;;
67041;SDS011;53949;47.790;18.750;2024-03-23T02:23:41;11.75;;;5.45;;
67041;SDS011;53949;47.790;18.750;2024-03-23T02:26:43;10.82;;;6.10;;
67041;SDS011;53949;47.790;18.750;2024-03-23T02:29:46;9.55;;;5.80;;
67041;SDS011;53949;47.790;18.750;2024-03-23T02:32:48;9.38;;;5.80;;
67041;SDS011;53949;47.790;18.750;2024-03-23T02:35:50;7.93;;;5.55;;
67041;SDS011;53949;47.790;18.750;2024-03-23T02:38:52;8.45;;;5.70;;
67041;SDS011;53949;47.790;18.750;2024-03-23T02:41:54;9.20;;;5.95;;
67041;SDS011;53949;47.790;18.750;2024-03-23T02:44:57;9.77;;;6.03;;
67041;SDS011;53949;47.790;18.750;2024-03-23T02:48:01;7.90;;;5.55;;
67041;SDS011;53949;47.790;18.750;2024-03-23T02:51:03;11.65;;;6.47;;
67041;SDS011;53949;47.790;18.750;2024-03-23T02:54:06;9.50;;;5.53;;
67041;SDS011;53949;47.790;18.750;2024-03-23T02:57:08;9.93;;;6.00;;
67041;SDS011;53949;47.790;18.750;2024-03-23T03:00:11;9.48;;;5.78;;
67041;SDS011;53949;47.790;18.750;2024-03-23T03:03:14;10.73;;;6.10;;
67041;SDS011;53949;47.790;18.750;2024-03-23T03:06:25;8.38;;;5.87;;
67041;SDS011;53949;47.790;18.750;2024-03-23T03:09:28;12.15;;;6.22;;
67041;SDS011;53949;47.790;18.750;2024-03-23T03:12:30;9.50;;;6.20;;
67041;SDS011;53949;47.790;18.750;2024-03-23T03:15:32;9.13;;;5.97;;
67041;SDS011;53949;47.790;18.750;2024-03-23T03:18:34;10.38;;;5.80;;
67041;SDS011;53949;47.790;18.750;2024-03-23T03:21:37;9.98;;;6.18;;
67041;SDS011;53949;47.790;18.750;2024-03-23T03:24:39;10.73;;;6.35;;
67041;SDS011;53949;47.790;18.750;2024-03-23T03:27:41;9.70;;;6.12;;
67041;SDS011;53949;47.790;18.750;2024-03-23T03:30:44;10.60;;;7.00;;
67041;SDS011;53949;47.790;18.750;2024-03-23T03:33:46;11.63;;;6.37;;
67041;SDS011;53949;47.790;18.750;2024-03-23T03:36:49;8.00;;;5.62;;
67041;SDS011;53949;47.790;18.750;2024-03-23T03:39:51;9.90;;;6.97;;
67041;SDS011;53949;47.790;18.750;2024-03-23T03:42:53;9.40;;;6.40;;
67041;SDS011;53949;47.790;18.750;2024-03-23T03:45:56;10.95;;;6.68;;
67041;SDS011;53949;47.790;18.750;2024-03-23T03:48:59;10.30;;;6.22;;
67041;SDS011;53949;47.790;18.750;2024-03-23T03:52:02;10.98;;;7.18;;
67041;SDS011;53949;47.790;18.750;2024-03-23T03:55:06;10.77;;;7.12;;
67041;SDS011;53949;47.790;18.750;2024-03-23T03:58:14;8.98;;;6.45;;
67041;SDS011;53949;47.790;18.750;2024-03-23T04:01:17;12.13;;;6.95;;
67041;SDS011;53949;47.790;18.750;2024-03-23T04:04:21;9.93;;;7.45;;
67041;SDS011;53949;47.790;18.750;2024-03-23T04:07:24;15.55;;;7.68;;
67041;SDS011;53949;47.790;18.750;2024-03-23T04:10:26;12.15;;;7.28;;
67041;SDS011;53949;47.790;18.750;2024-03-23T04:13:28;11.30;;;6.65;;
67041;SDS011;53949;47.790;18.750;2024-03-23T04:16:33;10.95;;;7.00;;
67041;SDS011;53949;47.790;18.750;2024-03-23T04:19:36;10.75;;;6.90;;
67041;SDS011;53949;47.790;18.750;2024-03-23T04:22:38;10.40;;;6.93;;
67041;SDS011;53949;47.790;18.750;2024-03-23T04:25:40;9.85;;;6.72;;
67041;SDS011;53949;47.790;18.750;2024-03-23T04:28:43;10.77;;;7.47;;
67041;SDS011;53949;47.790;18.750;2024-03-23T04:31:45;9.65;;;6.72;;
67041;SDS011;53949;47.790;18.750;2024-03-23T04:34:47;10.13;;;7.25;;
67041;SDS011;53949;47.790;18.750;2024-03-23T04:37:51;12.23;;;7.87;;
67041;SDS011;53949;47.790;18.750;2024-03-23T04:40:55;12.63;;;7.43;;
67041;SDS011;53949;47.790;18.750;2024-03-23T04:44:00;11.40;;;7.45;;
67041;SDS011;53949;47.790;18.750;2024-03-23T04:47:03;10.75;;;7.05;;
67041;SDS011;53949;47.790;18.750;2024-03-23T04:50:08;10.23;;;7.10;;
67041;SDS011;53949;47.790;18.750;2024-03-23T04:53:12;11.15;;;7.30;;
67041;SDS011;53949;47.790;18.750;2024-03-23T04:56:17;11.63;;;7.60;;
67041;SDS011;53949;47.790;18.750;2024-03-23T04:59:20;9.60;;;6.87;;
67041;SDS011;53949;47.790;18.750;2024-03-23T05:02:23;9.20;;;6.70;;
67041;SDS011;53949;47.790;18.750;2024-03-23T05:05:27;9.35;;;7.28;;
67041;SDS011;53949;47.790;18.750;2024-03-23T05:08:29;14.07;;;8.27;;
67041;SDS011;53949;47.790;18.750;2024-03-23T05:11:32;11.52;;;7.45;;
67041;SDS011;53949;47.790;18.750;2024-03-23T05:14:35;10.18;;;7.30;;
67041;SDS011;53949;47.790;18.750;2024-03-23T05:17:38;12.77;;;7.03;;
67041;SDS011;53949;47.790;18.750;2024-03-23T05:20:40;11.45;;;7.93;;
67041;SDS011;53949;47.790;18.750;2024-03-23T05:23:42;12.75;;;7.40;;
67041;SDS011;53949;47.790;18.750;2024-03-23T05:26:44;12.77;;;7.53;;
67041;SDS011;53949;47.790;18.750;2024-03-23T05:29:47;12.60;;;7.12;;
67041;SDS011;53949;47.790;18.750;2024-03-23T05:32:49;12.27;;;7.32;;
67041;SDS011;53949;47.790;18.750;2024-03-23T05:35:58;10.90;;;6.85;;
67041;SDS011;53949;47.790;18.750;2024-03-23T05:39:02;13.48;;;7.40;;
67041;SDS011;53949;47.790;18.750;2024-03-23T05:42:05;10.63;;;7.45;;
67041;SDS011;53949;47.790;18.750;2024-03-23T05:45:08;10.80;;;7.25;;
67041;SDS011;53949;47.790;18.750;2024-03-23T05:48:10;12.05;;;7.45;;
67041;SDS011;53949;47.790;18.750;2024-03-23T05:51:12;11.18;;;7.28;;
67041;SDS011;53949;47.790;18.750;2024-03-23T05:54:15;13.60;;;7.97;;
67041;SDS011;53949;47.790;18.750;2024-03-23T05:57:17;11.55;;;7.18;;
67041;SDS011;53949;47.790;18.750;2024-03-23T06:00:26;10.43;;;7.12;;
67041;SDS011;53949;47.790;18.750;2024-03-23T06:03:28;11.20;;;6.55;;
67041;SDS011;53949;47.790;18.750;2024-03-23T06:06:33;12.73;;;7.78;;
67041;SDS011;53949;47.790;18.750;2024-03-23T06:09:35;9.23;;;6.68;;
67041;SDS011;53949;47.790;18.750;2024-03-23T06:12:46;10.94;;;7.30;;
67041;SDS011;53949;47.790;18.750;2024-03-23T06:15:50;18.48;;;7.70;;
67041;SDS011;53949;47.790;18.750;2024-03-23T06:18:53;9.85;;;7.82;;
67041;SDS011;53949;47.790;18.750;2024-03-23T06:21:56;12.25;;;7.85;;
67041;SDS011;53949;47.790;18.750;2024-03-23T06:24:58;10.30;;;6.90;;
67041;SDS011;53949;47.790;18.750;2024-03-23T06:28:01;11.63;;;7.80;;
67041;SDS011;53949;47.790;18.750;2024-03-23T06:31:08;10.77;;;7.87;;
67041;SDS011;53949;47.790;18.750;2024-03-23T06:34:11;12.20;;;7.85;;
67041;SDS011;53949;47.790;18.750;2024-03-23T06:37:13;9.98;;;7.12;;
67041;SDS011;53949;47.790;18.750;2024-03-23T06:40:16;13.75;;;8.18;;
67041;SDS011;53949;47.790;18.750;2024-03-23T06:43:18;13.25;;;8.20;;
67041;SDS011;53949;47.790;18.750;2024-03-23T06:46:20;11.93;;;7.62;;
67041;SDS011;53949;47.790;18.750;2024-03-23T06:49:23;12.93;;;7.78;;
67041;SDS011;53949;47.790;18.750;2024-03-23T06:52:27;12.40;;;7.40;;
67041;SDS011;53949;47.790;18.750;2024-03-23T06:55:31;13.75;;;7.20;;
67041;SDS011;53949;47.790;18.750;2024-03-23T06:58:33;10.48;;;7.65;;
67041;SDS011;53949;47.790;18.750;2024-03-23T07:01:35;12.10;;;8.25;;
67041;SDS011;53949;47.790;18.750;2024-03-23T07:04:38;13.13;;;8.30;;
67041;SDS011;53949;47.790;18.750;2024-03-23T07:10:45;13.77;;;8.25;;
67041;SDS011;53949;47.790;18.750;2024-03-23T07:13:51;12.50;;;8.25;;
67041;SDS011;53949;47.790;18.750;2024-03-23T07:16:56;12.48;;;8.32;;
67041;SDS011;53949;47.790;18.750;2024-03-23T07:19:58;15.55;;;9.40;;
67041;SDS011;53949;47.790;18.750;2024-03-23T07:23:03;11.20;;;8.00;;
67041;SDS011;53949;47.790;18.750;2024-03-23T07:26:05;13.05;;;8.57;;
67041;SDS011;53949;47.790;18.750;2024-03-23T07:29:08;14.87;;;8.63;;
67041;SDS011;53949;47.790;18.750;2024-03-23T07:32:10;12.43;;;8.82;;
67041;SDS011;53949;47.790;18.750;2024-03-23T07:35:14;14.43;;;9.10;;
67041;SDS011;53949;47.790;18.750;2024-03-23T07:38:16;12.52;;;8.55;;
67041;SDS011;53949;47.790;18.750;2024-03-23T07:41:19;12.15;;;8.80;;
67041;SDS011;53949;47.790;18.750;2024-03-23T07:44:21;14.25;;;9.93;;
67041;SDS011;53949;47.790;18.750;2024-03-23T07:47:24;12.55;;;8.63;;
67041;SDS011;53949;47.790;18.750;2024-03-23T07:50:27;16.20;;;8.68;;
67041;SDS011;53949;47.790;18.750;2024-03-23T07:53:30;12.90;;;7.82;;
67041;SDS011;53949;47.790;18.750;2024-03-23T07:56:32;16.08;;;8.65;;
67041;SDS011;53949;47.790;18.750;2024-03-23T07:59:35;12.57;;;8.10;;
67041;SDS011;53949;47.790;18.750;2024-03-23T08:02:38;14.48;;;8.38;;
67041;SDS011;53949;47.790;18.750;2024-03-23T08:05:40;15.25;;;8.68;;
67041;SDS011;53949;47.790;18.750;2024-03-23T08:08:46;13.25;;;8.68;;
67041;SDS011;53949;47.790;18.750;2024-03-23T08:11:51;11.40;;;8.57;;
67041;SDS011;53949;47.790;18.750;2024-03-23T08:14:53;14.30;;;8.40;;
67041;SDS011;53949;47.790;18.750;2024-03-23T08:17:55;15.27;;;8.52;;
67041;SDS011;53949;47.790;18.750;2024-03-23T08:21:05;11.35;;;8.65;;
67041;SDS011;53949;47.790;18.750;2024-03-23T08:24:08;13.48;;;8.77;;
67041;SDS011;53949;47.790;18.750;2024-03-23T08:27:10;13.77;;;8.63;;
67041;SDS011;53949;47.790;18.750;2024-03-23T08:30:12;11.25;;;8.45;;
67041;SDS011;53949;47.790;18.750;2024-03-23T08:33:14;13.32;;;8.20;;
67041;SDS011;53949;47.790;18.750;2024-03-23T08:36:17;11.98;;;8.27;;
67041;SDS011;53949;47.790;18.750;2024-03-23T08:39:19;10.90;;;7.97;;
67041;SDS011;53949;47.790;18.750;2024-03-23T08:42:21;12.75;;;8.77;;
67041;SDS011;53949;47.790;18.750;2024-03-23T08:45:24;12.05;;;8.43;;
67041;SDS011;53949;47.790;18.750;2024-03-23T08:48:28;14.05;;;8.45;;
67041;SDS011;53949;47.790;18.750;2024-03-23T08:51:31;12.88;;;8.32;;
67041;SDS011;53949;47.790;18.750;2024-03-23T08:54:33;16.15;;;8.75;;
67041;SDS011;53949;47.790;18.750;2024-03-23T08:57:36;12.77;;;9.38;;
67041;SDS011;53949;47.790;18.750;2024-03-23T09:00:38;11.68;;;8.40;;
67041;SDS011;53949;47.790;18.750;2024-03-23T09:03:41;11.80;;;8.63;;
67041;SDS011;53949;47.790;18.750;2024-03-23T09:06:43;11.82;;;7.80;;
67041;SDS011;53949;47.790;18.750;2024-03-23T09:09:45;12.50;;;8.60;;
67041;SDS011;53949;47.790;18.750;2024-03-23T09:12:47;12.15;;;8.05;;
67041;SDS011;53949;47.790;18.750;2024-03-23T09:15:51;13.55;;;8.05;;
67041;SDS011;53949;47.790;18.750;2024-03-23T09:18:58;15.45;;;9.35;;
67041;SDS011;53949;47.790;18.750;2024-03-23T09:22:00;13.35;;;8.70;;
67041;SDS011;53949;47.790;18.750;2024-03-23T09:25:03;11.25;;;7.28;;
67041;SDS011;53949;47.790;18.750;2024-03-23T09:28:06;11.88;;;8.43;;
67041;SDS011;53949;47.790;18.750;2024-03-23T09:31:12;14.25;;;8.18;;
67041;SDS011;53949;47.790;18.750;2024-03-23T09:34:16;12.25;;;8.57;;
67041;SDS011;53949;47.790;18.750;2024-03-23T09:37:18;14.82;;;8.38;;
67041;SDS011;53949;47.790;18.750;2024-03-23T09:40:20;11.75;;;8.35;;
67041;SDS011;53949;47.790;18.750;2024-03-23T09:43:23;13.88;;;8.15;;
67041;SDS011;53949;47.790;18.750;2024-03-23T09:46:25;13.68;;;8.38;;
67041;SDS011;53949;47.790;18.750;2024-03-23T09:49:28;10.77;;;7.15;;
67041;SDS011;53949;47.790;18.750;2024-03-23T09:52:30;11.68;;;6.68;;
67041;SDS011;53949;47.790;18.750;2024-03-23T09:55:34;8.18;;;6.68;;
67041;SDS011;53949;47.790;18.750;2024-03-23T09:58:39;11.40;;;6.22;;
67041;SDS011;53949;47.790;18.750;2024-03-23T10:01:41;12.10;;;7.30;;
67041;SDS011;53949;47.790;18.750;2024-03-23T10:04:45;15.55;;;7.97;;
67041;SDS011;53949;47.790;18.750;2024-03-23T10:07:51;12.77;;;7.62;;
67041;SDS011;53949;47.790;18.750;2024-03-23T10:10:53;18.65;;;7.50;;
67041;SDS011;53949;47.790;18.750;2024-03-23T10:13:55;13.68;;;7.05;;
67041;SDS011;53949;47.790;18.750;2024-03-23T10:17:11;10.57;;;6.85;;
67041;SDS011;53949;47.790;18.750;2024-03-23T10:20:21;8.33;;;6.33;;
67041;SDS011;53949;47.790;18.750;2024-03-23T10:23:27;10.80;;;6.93;;
67041;SDS011;53949;47.790;18.750;2024-03-23T10:26:29;11.60;;;6.40;;
67041;SDS011;53949;47.790;18.750;2024-03-23T10:29:32;9.80;;;6.78;;
67041;SDS011;53949;47.790;18.750;2024-03-23T10:32:34;8.65;;;6.30;;
67041;SDS011;53949;47.790;18.750;2024-03-23T10:35:37;10.43;;;6.80;;
67041;SDS011;53949;47.790;18.750;2024-03-23T10:38:40;9.70;;;6.37;;
67041;SDS011;53949;47.790;18.750;2024-03-23T10:41:43;8.80;;;6.63;;
67041;SDS011;53949;47.790;18.750;2024-03-23T10:44:46;11.60;;;6.28;;
67041;SDS011;53949;47.790;18.750;2024-03-23T10:47:48;9.23;;;6.10;;
67041;SDS011;53949;47.790;18.750;2024-03-23T10:50:51;11.20;;;5.85;;
67041;SDS011;53949;47.790;18.750;2024-03-23T10:53:53;11.48;;;6.32;;
67041;SDS011;53949;47.790;18.750;2024-03-23T10:56:59;14.68;;;6.18;;
67041;SDS011;53949;47.790;18.750;2024-03-23T11:00:06;9.02;;;5.37;;
67041;SDS011;53949;47.790;18.750;2024-03-23T11:03:29;8.85;;;5.22;;
67041;SDS011;53949;47.790;18.750;2024-03-23T11:06:39;8.40;;;4.55;;
67041;SDS011;53949;47.790;18.750;2024-03-23T11:09:44;8.50;;;5.90;;
67041;SDS011;53949;47.790;18.750;2024-03-23T11:12:47;8.73;;;5.55;;
67041;SDS011;53949;47.790;18.750;2024-03-23T11:15:49;8.05;;;6.12;;
67041;SDS011;53949;47.790;18.750;2024-03-23T11:18:51;8.05;;;5.37;;
67041;SDS011;53949;47.790;18.750;2024-03-23T11:21:54;7.53;;;5.00;;
67041;SDS011;53949;47.790;18.750;2024-03-23T11:24:56;10.80;;;6.25;;
67041;SDS011;53949;47.790;18.750;2024-03-23T11:28:11;8.35;;;5.00;;
67041;SDS011;53949;47.790;18.750;2024-03-23T11:31:13;8.02;;;4.97;;
67041;SDS011;53949;47.790;18.750;2024-03-23T11:34:16;7.43;;;5.10;;
67041;SDS011;53949;47.790;18.750;2024-03-23T11:37:18;5.95;;;4.40;;
67041;SDS011;53949;47.790;18.750;2024-03-23T11:40:21;9.10;;;4.95;;
67041;SDS011;53949;47.790;18.750;2024-03-23T11:43:23;6.57;;;4.18;;
67041;SDS011;53949;47.790;18.750;2024-03-23T11:46:27;12.87;;;5.17;;
67041;SDS011;53949;47.790;18.750;2024-03-23T11:49:30;7.87;;;4.35;;
67041;SDS011;53949;47.790;18.750;2024-03-23T11:52:33;7.47;;;4.30;;
67041;SDS011;53949;47.790;18.750;2024-03-23T11:55:47;7.60;;;4.23;;
67041;SDS011;53949;47.790;18.750;2024-03-23T11:58:50;6.93;;;3.97;;
67041;SDS011;53949;47.790;18.750;2024-03-23T12:01:53;5.82;;;4.12;;
67041;SDS011;53949;47.790;18.750;2024-03-23T12:04:56;6.30;;;4.25;;
67041;SDS011;53949;47.790;18.750;2024-03-23T12:08:17;7.50;;;4.55;;
67041;SDS011;53949;47.790;18.750;2024-03-23T12:11:26;8.63;;;4.50;;
67041;SDS011;53949;47.790;18.750;2024-03-23T12:14:28;6.50;;;5.05;;
67041;SDS011;53949;47.790;18.750;2024-03-23T12:17:33;7.53;;;4.37;;
67041;SDS011;53949;47.790;18.750;2024-03-23T12:20:39;6.37;;;4.00;;
67041;SDS011;53949;47.790;18.750;2024-03-23T12:23:41;4.78;;;3.95;;
67041;SDS011;53949;47.790;18.750;2024-03-23T12:26:46;7.37;;;4.90;;
67041;SDS011;53949;47.790;18.750;2024-03-23T12:29:52;6.07;;;4.45;;
67041;SDS011;53949;47.790;18.750;2024-03-23T12:32:54;8.00;;;4.55;;
67041;SDS011;53949;47.790;18.750;2024-03-23T12:35:56;8.68;;;4.62;;
67041;SDS011;53949;47.790;18.750;2024-03-23T12:38:58;8.20;;;4.47;;
67041;SDS011;53949;47.790;18.750;2024-03-23T12:42:02;7.37;;;5.22;;
67041;SDS011;53949;47.790;18.750;2024-03-23T12:45:04;6.62;;;4.12;;
67041;SDS011;53949;47.790;18.750;2024-03-23T12:48:07;7.72;;;4.68;;
67041;SDS011;53949;47.790;18.750;2024-03-23T12:51:09;6.87;;;4.68;;
67041;SDS011;53949;47.790;18.750;2024-03-23T12:54:12;6.50;;;4.30;;
67041;SDS011;53949;47.790;18.750;2024-03-23T12:57:14;5.53;;;3.70;;
67041;SDS011;53949;47.790;18.750;2024-03-23T13:00:16;7.57;;;3.67;;
67041;SDS011;53949;47.790;18.750;2024-03-23T13:03:18;7.43;;;4.35;;
67041;SDS011;53949;47.790;18.750;2024-03-23T13:06:21;6.78;;;3.60;;
67041;SDS011;53949;47.790;18.750;2024-03-23T13:09:23;7.22;;;3.90;;
67041;SDS011;53949;47.790;18.750;2024-03-23T13:12:27;7.67;;;3.87;;
67041;SDS011;53949;47.790;18.750;2024-03-23T13:15:29;7.12;;;3.42;;
67041;SDS011;53949;47.790;18.750;2024-03-23T13:18:31;4.22;;;3.37;;
67041;SDS011;53949;47.790;18.750;2024-03-23T13:21:34;6.20;;;3.90;;
67041;SDS011;53949;47.790;18.750;2024-03-23T13:24:36;6.95;;;4.05;;
67041;SDS011;53949;47.790;18.750;2024-03-23T13:27:38;6.68;;;3.78;;
67041;SDS011;53949;47.790;18.750;2024-03-23T13:30:40;3.37;;;2.97;;
67041;SDS011;53949;47.790;18.750;2024-03-23T13:33:43;5.47;;;3.35;;
67041;SDS011;53949;47.790;18.750;2024-03-23T13:36:45;7.10;;;3.60;;
67041;SDS011;53949;47.790;18.750;2024-03-23T13:39:48;6.65;;;3.47;;
67041;SDS011;53949;47.790;18.750;2024-03-23T13:42:50;6.10;;;3.05;;
67041;SDS011;53949;47.790;18.750;2024-03-23T13:45:55;8.90;;;3.12;;
67041;SDS011;53949;47.790;18.750;2024-03-23T13:48:58;6.43;;;3.33;;
67041;SDS011;53949;47.790;18.750;2024-03-23T13:52:00;5.15;;;2.83;;
67041;SDS011;53949;47.790;18.750;2024-03-23T13:55:02;5.32;;;3.05;;
67041;SDS011;53949;47.790;18.750;2024-03-23T13:58:05;5.37;;;3.33;;
67041;SDS011;53949;47.790;18.750;2024-03-23T14:01:07;4.68;;;3.10;;
67041;SDS011;53949;47.790;18.750;2024-03-23T14:04:10;4.05;;;3.05;;
67041;SDS011;53949;47.790;18.750;2024-03-23T14:07:12;6.72;;;3.30;;
67041;SDS011;53949;47.790;18.750;2024-03-23T14:10:14;5.05;;;3.20;;
67041;SDS011;53949;47.790;18.750;2024-03-23T14:13:18;6.60;;;3.28;;
67041;SDS011;53949;47.790;18.750;2024-03-23T14:16:21;5.78;;;3.62;;
67041;SDS011;53949;47.790;18.750;2024-03-23T14:19:23;3.87;;;3.25;;
67041;SDS011;53949;47.790;18.750;2024-03-23T14:22:25;5.32;;;3.17;;
67041;SDS011;53949;47.790;18.750;2024-03-23T14:25:28;3.58;;;2.95;;
67041;SDS011;53949;47.790;18.750;2024-03-23T14:28:32;6.30;;;3.17;;
67041;SDS011;53949;47.790;18.750;2024-03-23T14:31:34;7.07;;;3.80;;
67041;SDS011;53949;47.790;18.750;2024-03-23T14:34:37;6.62;;;3.70;;
67041;SDS011;53949;47.790;18.750;2024-03-23T14:37:40;5.82;;;3.60;;
67041;SDS011;53949;47.790;18.750;2024-03-23T14:40:43;7.70;;;4.43;;
67041;SDS011;53949;47.790;18.750;2024-03-23T14:43:45;8.93;;;4.32;;
67041;SDS011;53949;47.790;18.750;2024-03-23T14:46:50;7.40;;;4.07;;
67041;SDS011;53949;47.790;18.750;2024-03-23T14:49:52;11.25;;;3.70;;
67041;SDS011;53949;47.790;18.750;2024-03-23T14:52:55;5.55;;;3.87;;
67041;SDS011;53949;47.790;18.750;2024-03-23T14:55:59;4.60;;;3.45;;
67041;SDS011;53949;47.790;18.750;2024-03-23T14:59:04;6.35;;;3.50;;
67041;SDS011;53949;47.790;18.750;2024-03-23T15:02:08;4.80;;;3.43;;
67041;SDS011;53949;47.790;18.750;2024-03-23T15:05:11;4.40;;;3.60;;
67041;SDS011;53949;47.790;18.750;2024-03-23T15:08:13;4.60;;;4.10;;
67041;SDS011;53949;47.790;18.750;2024-03-23T15:11:15;4.87;;;3.58;;
67041;SDS011;53949;47.790;18.750;2024-03-23T15:14:19;4.37;;;3.05;;
67041;SDS011;53949;47.790;18.750;2024-03-23T15:17:22;4.43;;;3.35;;
67041;SDS011;53949;47.790;18.750;2024-03-23T15:20:24;4.15;;;3.20;;
67041;SDS011;53949;47.790;18.750;2024-03-23T15:23:26;3.83;;;2.97;;
67041;SDS011;53949;47.790;18.750;2024-03-23T15:26:29;4.55;;;3.10;;
67041;SDS011;53949;47.790;18.750;2024-03-23T15:29:31;7.70;;;3.50;;
67041;SDS011;53949;47.790;18.750;2024-03-23T15:32:33;5.55;;;3.33;;
67041;SDS011;53949;47.790;18.750;2024-03-23T15:35:36;7.90;;;3.25;;
67041;SDS011;53949;47.790;18.750;2024-03-23T15:38:38;6.53;;;3.35;;
67041;SDS011;53949;47.790;18.750;2024-03-23T15:41:46;3.62;;;2.78;;
67041;SDS011;53949;47.790;18.750;2024-03-23T15:44:49;6.35;;;3.53;;
67041;SDS011;53949;47.790;18.750;2024-03-23T15:47:51;3.65;;;3.00;;
67041;SDS011;53949;47.790;18.750;2024-03-23T15:50:55;3.87;;;3.00;;
67041;SDS011;53949;47.790;18.750;2024-03-23T15:54:06;3.62;;;3.20;;
67041;SDS011;53949;47.790;18.750;2024-03-23T15:57:08;3.92;;;2.83;;
67041;SDS011;53949;47.790;18.750;2024-03-23T16:00:10;5.75;;;2.58;;
67041;SDS011;53949;47.790;18.750;2024-03-23T16:03:13;4.50;;;3.78;;
67041;SDS011;53949;47.790;18.750;2024-03-23T16:06:14;6.18;;;2.87;;
67041;SDS011;53949;47.790;18.750;2024-03-23T16:09:17;4.43;;;3.83;;
67041;SDS011;53949;47.790;18.750;2024-03-23T16:12:20;7.07;;;3.35;;
67041;SDS011;53949;47.790;18.750;2024-03-23T16:15:22;6.53;;;3.72;;
67041;SDS011;53949;47.790;18.750;2024-03-23T16:31:12;3.53;;;0.93;;
67041;SDS011;53949;47.790;18.750;2024-03-23T16:34:15;0.77;;;0.40;;
67041;SDS011;53949;47.790;18.750;2024-03-23T16:37:16;1.30;;;0.90;;
67041;SDS011;53949;47.790;18.750;2024-03-23T16:40:18;2.87;;;0.70;;
67041;SDS011;53949;47.790;18.750;2024-03-23T16:43:20;7.45;;;0.80;;
67041;SDS011;53949;47.790;18.750;2024-03-23T16:46:22;3.60;;;0.95;;
67041;SDS011;53949;47.790;18.750;2024-03-23T16:49:26;1.05;;;0.73;;
67041;SDS011;53949;47.790;18.750;2024-03-23T16:52:28;0.50;;;0.50;;
67041;SDS011;53949;47.790;18.750;2024-03-23T16:55:30;1.33;;;0.98;;
67041;SDS011;53949;47.790;18.750;2024-03-23T16:58:33;0.70;;;0.70;;
67041;SDS011;53949;47.790;18.750;2024-03-23T17:01:35;3.92;;;0.85;;
67041;SDS011;53949;47.790;18.750;2024-03-23T17:04:38;0.80;;;0.70;;
67041;SDS011;53949;47.790;18.750;2024-03-23T17:07:40;0.98;;;0.82;;
67041;SDS011;53949;47.790;18.750;2024-03-23T17:10:44;4.55;;;1.25;;
67041;SDS011;53949;47.790;18.750;2024-03-23T17:13:46;2.65;;;0.80;;
67041;SDS011;53949;47.790;18.750;2024-03-23T17:16:51;2.77;;;1.40;;
67041;SDS011;53949;47.790;18.750;2024-03-23T17:19:58;0.85;;;0.80;;
67041;SDS011;53949;47.790;18.750;2024-03-23T17:23:02;0.45;;;0.45;;
67041;SDS011;53949;47.790;18.750;2024-03-23T17:26:04;1.30;;;0.93;;
67041;SDS011;53949;47.790;18.750;2024-03-23T17:29:07;0.90;;;0.85;;
67041;SDS011;53949;47.790;18.750;2024-03-23T17:32:09;0.60;;;0.60;;
67041;SDS011;53949;47.790;18.750;2024-03-23T17:35:11;1.10;;;1.00;;
67041;SDS011;53949;47.790;18.750;2024-03-23T17:38:13;1.27;;;0.88;;
67041;SDS011;53949;47.790;18.750;2024-03-23T17:41:15;3.95;;;1.48;;
67041;SDS011;53949;47.790;18.750;2024-03-23T17:44:17;1.98;;;1.08;;
67041;SDS011;53949;47.790;18.750;2024-03-23T17:47:20;0.88;;;0.70;;
67041;SDS011;53949;47.790;18.750;2024-03-23T17:50:22;2.15;;;1.05;;
67041;SDS011;53949;47.790;18.750;2024-03-23T17:53:26;1.20;;;1.10;;
67041;SDS011;53949;47.790;18.750;2024-03-23T17:56:28;2.55;;;1.00;;
67041;SDS011;53949;47.790;18.750;2024-03-23T17:59:31;0.60;;;0.60;;
67041;SDS011;53949;47.790;18.750;2024-03-23T18:02:33;0.80;;;0.80;;
67041;SDS011;53949;47.790;18.750;2024-03-23T18:05:36;0.85;;;0.80;;
67041;SDS011;53949;47.790;18.750;2024-03-23T18:08:40;2.75;;;0.60;;
67041;SDS011;53949;47.790;18.750;2024-03-23T18:11:43;1.00;;;0.70;;
67041;SDS011;53949;47.790;18.750;2024-03-23T18:14:45;1.65;;;0.70;;
67041;SDS011;53949;47.790;18.750;2024-03-23T18:17:47;1.75;;;0.70;;
67041;SDS011;53949;47.790;18.750;2024-03-23T18:20:53;0.90;;;0.60;;
67041;SDS011;53949;47.790;18.750;2024-03-23T18:23:55;0.70;;;0.68;;
67041;SDS011;53949;47.790;18.750;2024-03-23T18:26:57;2.10;;;0.82;;
67041;SDS011;53949;47.790;18.750;2024-03-23T18:29:59;1.23;;;0.85;;
67041;SDS011;53949;47.790;18.750;2024-03-23T18:33:01;1.10;;;1.00;;
67041;SDS011;53949;47.790;18.750;2024-03-23T18:36:04;2.72;;;1.00;;
67041;SDS011;53949;47.790;18.750;2024-03-23T18:39:06;0.65;;;0.65;;
67041;SDS011;53949;47.790;18.750;2024-03-23T18:42:08;2.30;;;0.70;;
67041;SDS011;53949;47.790;18.750;2024-03-23T18:45:10;0.80;;;0.80;;
67041;SDS011;53949;47.790;18.750;2024-03-23T18:48:13;0.73;;;0.73;;
67041;SDS011;53949;47.790;18.750;2024-03-23T18:51:14;0.90;;;0.68;;
67041;SDS011;53949;47.790;18.750;2024-03-23T18:54:17;1.45;;;0.68;;
67041;SDS011;53949;47.790;18.750;2024-03-23T18:57:18;0.70;;;0.70;;
67041;SDS011;53949;47.790;18.750;2024-03-23T19:00:21;2.28;;;1.37;;
67041;SDS011;53949;47.790;18.750;2024-03-23T19:03:23;2.45;;;0.77;;
67041;SDS011;53949;47.790;18.750;2024-03-23T19:06:26;1.10;;;0.90;;